Terminal Aerodrome Forecast
Issued by NWS Lake Charles, LA

Home | Current Version | Previous Version | Text Only | Print | Product List | Glossary On
Versions: 1 2 3 4 5 6 7 8 9 10 11 12 13 14 15 16
751
FTUS44 KLCH 261140
TAFARA
TAF
KARA 261140Z 2612/2712 00000KT 1/2SM FG OVC003
     FM261400 VRB05KT 5SM BR OVC008
     FM261600 18007KT P6SM BKN015
     FM261800 18010G15KT P6SM SCT025
     FM270100 17005KT P6SM BKN015
     FM270300 15010KT 3SM BR OVC007=

USA.gov is the U.S. government's official web portal to all federal, state and local government web resources and services.